Time;durP1;ratioP1;P1;durP2;ratioP2;P2;SDS_P1;SDS_P2;PMS_P1;PMS_P2;Temp;Humidity;BMP_temperature;BMP_pressure;BME280_temperature;BME280_humidity;BME280_pressure;Samples;Min_cycle;Max_cycle;Signal;HPM_P1;HPM_P2
2021/04/09 00:00:51;;;;;;;42.13;23.67;;;;;;;;;;5138271;27;20469;-68
2021/04/09 00:03:17;;;;;;;45.47;23.65;;;;;;;;;;5138144;27;20433;-68
2021/04/09 00:05:42;;;;;;;42.13;24.60;;;;;;;;;;5137931;27;20031;-68
2021/04/09 00:08:08;;;;;;;46.42;24.95;;;;;;;;;;5137850;27;20023;-68
2021/04/09 00:10:33;;;;;;;47.97;24.63;;;;;;;;;;5137783;27;20031;-68
2021/04/09 00:12:59;;;;;;;45.67;24.65;;;;;;;;;;5138104;27;20058;-68
2021/04/09 00:15:25;;;;;;;43.28;24.63;;;;;;;;;;5137839;27;20023;-69
2021/04/09 00:17:52;;;;;;;43.25;24.13;;;;;;;;;;5137878;27;20015;-64
2021/04/09 00:20:19;;;;;;;45.13;23.52;;;;;;;;;;5137568;27;20031;-64
2021/04/09 00:22:46;;;;;;;40.92;23.27;;;;;;;;;;5137985;27;20373;-64
2021/04/09 00:25:11;;;;;;;41.78;23.75;;;;;;;;;;5137882;27;20027;-65
2021/04/09 00:27:37;;;;;;;41.60;23.95;;;;;;;;;;5137701;27;20354;-65
2021/04/09 00:30:04;;;;;;;43.55;23.80;;;;;;;;;;5137840;27;20081;-65
2021/04/09 00:32:30;;;;;;;45.58;23.48;;;;;;;;;;5137650;27;20027;-65
2021/04/09 00:34:55;;;;;;;39.30;22.40;;;;;;;;;;5119225;27;20020;-63
2021/04/09 00:37:21;;;;;;;43.35;23.25;;;;;;;;;;5137448;27;20027;-66
2021/04/09 00:39:47;;;;;;;41.25;22.35;;;;;;;;;;5137604;27;20027;-65
2021/04/09 00:42:17;;;;;;;43.40;23.42;;;;;;;;;;5137246;27;20075;-66
2021/04/09 00:44:43;;;;;;;45.70;23.70;;;;;;;;;;5137426;27;20400;-66
2021/04/09 00:47:09;;;;;;;44.92;23.35;;;;;;;;;;5137068;27;20480;-64
2021/04/09 00:49:34;;;;;;;44.08;23.23;;;;;;;;;;5137333;27;20114;-68
2021/04/09 00:52:00;;;;;;;47.70;26.15;;;;;;;;;;5135759;27;20054;-68
2021/04/09 00:54:26;;;;;;;42.88;25.27;;;;;;;;;;5136415;27;20035;-68
2021/04/09 00:56:52;;;;;;;42.80;24.27;;;;;;;;;;5137321;27;20381;-68
2021/04/09 00:59:18;;;;;;;42.05;23.50;;;;;;;;;;5137114;27;20027;-68
2021/04/09 01:01:43;;;;;;;43.75;24.48;;;;;;;;;;5136914;27;20030;-67
2021/04/09 01:04:10;;;;;;;44.50;22.45;;;;;;;;;;5118604;27;20126;-67
2021/04/09 01:06:36;;;;;;;41.10;22.63;;;;;;;;;;5135647;27;20054;-67
2021/04/09 01:09:02;;;;;;;42.03;24.08;;;;;;;;;;5135788;27;20430;-67
2021/04/09 01:11:27;;;;;;;42.72;22.98;;;;;;;;;;5135660;27;20029;-67
2021/04/09 01:14:01;;;;;;;40.63;23.40;;;;;;;;;;5136848;27;20030;-67
2021/04/09 01:16:34;;;;;;;41.30;23.88;;;;;;;;;;5136656;27;20075;-68
2021/04/09 01:19:09;;;;;;;43.80;23.23;;;;;;;;;;5136873;27;20461;-67
2021/04/09 01:21:46;;;;;;;43.53;23.83;;;;;;;;;;5136519;27;20441;-66
2021/04/09 01:24:31;;;;;;;39.78;22.92;;;;;;;;;;5136591;27;20103;-67
2021/04/09 01:27:11;;;;;;;39.55;22.25;;;;;;;;;;5136601;27;20132;-67
2021/04/09 01:29:37;;;;;;;;;;;;;;;;;;5137118;27;20027;-66
2021/04/09 01:32:06;;;;;;;46.05;24.27;;;;;;;;;;5136282;27;19908;-67
2021/04/09 01:34:34;;;;;;;41.35;23.15;;;;;;;;;;5136463;27;20031;-68
2021/04/09 01:37:20;;;;;;;44.35;23.98;;;;;;;;;;5136252;27;20014;-68
2021/04/09 01:39:51;;;;;;;46.38;24.42;;;;;;;;;;5136366;27;20062;-68
2021/04/09 01:42:18;;;;;;;48.08;25.33;;;;;;;;;;5136024;27;20427;-68
2021/04/09 01:44:46;;;;;;;43.25;23.60;;;;;;;;;;5135908;27;20015;-68
2021/04/09 01:47:15;;;;;;;45.35;23.83;;;;;;;;;;5117865;27;20041;-68
2021/04/09 01:49:42;;;;;;;54.13;28.92;;;;;;;;;;5135945;27;20532;-67
2021/04/09 01:52:09;;;;;;;39.95;23.40;;;;;;;;;;5135931;27;20027;-67
2021/04/09 01:54:36;;;;;;;49.15;25.77;;;;;;;;;;5135445;27;20532;-67
2021/04/09 01:57:02;;;;;;;47.65;25.67;;;;;;;;;;5117791;27;20151;-67
2021/04/09 01:59:29;;;;;;;48.10;26.33;;;;;;;;;;5135809;27;20081;-67
2021/04/09 02:01:55;;;;;;;62.08;34.22;;;;;;;;;;5135919;27;20027;-67
2021/04/09 02:04:21;;;;;;;43.72;23.63;;;;;;;;;;5135850;27;20453;-68
2021/04/09 02:06:48;;;;;;;50.15;27.85;;;;;;;;;;5135683;27;20104;-67
2021/04/09 02:09:14;;;;;;;43.42;22.58;;;;;;;;;;5134510;27;20075;-68
2021/04/09 02:11:41;;;;;;;39.28;22.15;;;;;;;;;;5134013;27;20023;-68
2021/04/09 02:14:10;;;;;;;40.97;22.60;;;;;;;;;;5135542;27;20015;-68
2021/04/09 02:16:36;;;;;;;46.30;23.17;;;;;;;;;;5135609;27;20023;-68
2021/04/09 02:19:03;;;;;;;39.67;21.10;;;;;;;;;;5135259;27;20381;-68
2021/04/09 02:21:31;;;;;;;45.83;22.85;;;;;;;;;;5135433;27;20054;-68
2021/04/09 02:23:57;;;;;;;41.10;22.67;;;;;;;;;;5135622;27;20015;-68
2021/04/09 02:26:22;;;;;;;47.75;24.38;;;;;;;;;;5117219;27;20072;-68
2021/04/09 02:28:48;;;;;;;38.80;21.27;;;;;;;;;;5135185;27;20110;-68
2021/04/09 02:31:13;;;;;;;39.90;19.80;;;;;;;;;;5134954;27;20031;-68
2021/04/09 02:33:40;;;;;;;38.65;21.15;;;;;;;;;;5135454;27;20026;-67
2021/04/09 02:36:14;;;;;;;39.42;22.00;;;;;;;;;;5116900;27;20479;-68
2021/04/09 02:38:41;;;;;;;42.13;20.75;;;;;;;;;;5135161;27;20023;-67
2021/04/09 02:41:08;;;;;;;41.10;20.35;;;;;;;;;;5116624;27;20022;-67
2021/04/09 02:43:38;;;;;;;40.42;21.08;;;;;;;;;;5134894;27;20031;-67
2021/04/09 02:46:08;;;;;;;36.13;20.73;;;;;;;;;;5135038;27;20058;-68
2021/04/09 02:48:34;;;;;;;35.65;19.85;;;;;;;;;;5134664;27;20503;-67
2021/04/09 02:51:05;;;;;;;37.92;20.17;;;;;;;;;;5134681;27;20087;-67
2021/04/09 02:53:33;;;;;;;33.72;18.90;;;;;;;;;;5134849;27;20026;-67
2021/04/09 02:56:02;;;;;;;36.88;18.92;;;;;;;;;;5134893;27;20055;-67
2021/04/09 02:58:29;;;;;;;39.33;19.52;;;;;;;;;;5116225;27;20469;-67
2021/04/09 03:00:54;;;;;;;42.97;21.00;;;;;;;;;;5134707;27;20105;-67
2021/04/09 03:03:21;;;;;;;45.22;22.05;;;;;;;;;;5134822;27;20114;-67
2021/04/09 03:05:48;;;;;;;35.00;18.30;;;;;;;;;;5116252;27;20031;-67
2021/04/09 03:08:16;;;;;;;34.47;18.98;;;;;;;;;;5134688;27;20029;-68
2021/04/09 03:10:41;;;;;;;36.42;17.92;;;;;;;;;;5116292;28;20015;-69
2021/04/09 03:13:07;;;;;;;36.22;18.48;;;;;;;;;;5134368;27;20027;-69
2021/04/09 03:15:45;;;;;;;39.80;20.55;;;;;;;;;;5134384;27;20015;-69
2021/04/09 03:18:11;;;;;;;55.88;23.45;;;;;;;;;;5134630;27;20026;-69
2021/04/09 03:20:37;;;;;;;48.33;22.38;;;;;;;;;;5134548;27;20049;-68
2021/04/09 03:23:03;;;;;;;37.22;19.55;;;;;;;;;;5134268;27;20441;-68
2021/04/09 03:25:29;;;;;;;35.28;18.58;;;;;;;;;;5134384;27;20023;-68
2021/04/09 03:27:55;;;;;;;37.28;19.13;;;;;;;;;;5134334;28;20027;-68
2021/04/09 03:30:21;;;;;;;40.60;19.45;;;;;;;;;;5134268;27;20376;-67
2021/04/09 03:32:47;;;;;;;101.28;39.35;;;;;;;;;;5137819;27;20023;-67
2021/04/09 03:35:13;;;;;;;61.22;27.73;;;;;;;;;;5138381;27;20098;-67
2021/04/09 03:37:38;;;;;;;40.67;20.08;;;;;;;;;;5138891;27;20107;-68
2021/04/09 03:40:04;;;;;;;38.60;17.88;;;;;;;;;;5138695;27;20023;-67
2021/04/09 03:42:30;;;;;;;41.90;18.50;;;;;;;;;;5138680;27;20087;-67
2021/04/09 03:45:04;;;;;;;38.70;18.58;;;;;;;;;;5120017;27;20106;-68
2021/04/09 03:47:36;;;;;;;35.47;18.60;;;;;;;;;;5138147;27;20054;-68
2021/04/09 03:50:09;;;;;;;37.20;19.25;;;;;;;;;;5138124;27;20422;-68
2021/04/09 03:52:38;;;;;;;36.72;19.55;;;;;;;;;;5138325;27;20027;-68
2021/04/09 03:55:05;;;;;;;37.28;19.23;;;;;;;;;;5138085;27;20130;-68
2021/04/09 03:57:33;;;;;;;35.58;18.42;;;;;;;;;;5138413;27;20095;-69
2021/04/09 03:59:58;;;;;;;39.40;19.70;;;;;;;;;;5137968;27;20183;-68
2021/04/09 04:02:25;;;;;;;34.90;19.38;;;;;;;;;;5138313;27;20516;-68
2021/04/09 04:04:50;;;;;;;38.50;20.00;;;;;;;;;;5119886;27;20011;-68
2021/04/09 04:07:16;;;;;;;32.05;18.77;;;;;;;;;;5138136;27;20165;-68
2021/04/09 04:09:41;;;;;;;34.03;19.42;;;;;;;;;;5136355;27;20019;-63
2021/04/09 04:12:07;;;;;;;37.25;20.05;;;;;;;;;;5137541;27;20156;-63
2021/04/09 04:14:33;;;;;;;45.42;26.08;;;;;;;;;;5133421;27;20445;-64
2021/04/09 04:16:58;;;;;;;40.60;20.02;;;;;;;;;;5137412;27;20031;-64
2021/04/09 04:19:24;;;;;;;46.13;22.65;;;;;;;;;;5137643;27;20047;-64
2021/04/09 04:21:50;;;;;;;37.60;20.25;;;;;;;;;;5136936;27;20062;-65
2021/04/09 04:24:16;;;;;;;36.65;18.80;;;;;;;;;;5119312;27;20020;-65
2021/04/09 04:26:43;;;;;;;38.42;20.45;;;;;;;;;;5137612;27;20031;-64
2021/04/09 04:29:09;;;;;;;51.88;24.67;;;;;;;;;;5135170;27;20035;-64
2021/04/09 04:31:34;;;;;;;37.63;19.15;;;;;;;;;;5116861;27;20080;-64
2021/04/09 04:34:00;;;;;;;31.33;17.25;;;;;;;;;;5119332;27;20421;-64
2021/04/09 04:36:25;;;;;;;28.83;16.48;;;;;;;;;;5131279;27;20027;-64
2021/04/09 04:38:51;;;;;;;35.25;17.50;;;;;;;;;;5137451;27;20071;-64
2021/04/09 04:41:17;;;;;;;33.40;17.33;;;;;;;;;;5125431;27;20027;-64
2021/04/09 04:43:43;;;;;;;32.22;16.77;;;;;;;;;;5137210;27;20068;-65
2021/04/09 04:46:08;;;;;;;32.83;19.95;;;;;;;;;;5137395;27;20023;-64
2021/04/09 04:48:34;;;;;;;32.28;17.15;;;;;;;;;;5136337;27;20015;-64
2021/04/09 04:51:00;;;;;;;32.35;15.63;;;;;;;;;;5136495;27;20061;-65
2021/04/09 04:53:26;;;;;;;33.55;15.65;;;;;;;;;;5136633;27;20026;-64
2021/04/09 04:55:51;;;;;;;29.42;15.55;;;;;;;;;;5137198;27;20035;-65
2021/04/09 04:58:17;;;;;;;41.50;24.25;;;;;;;;;;5137098;27;20031;-65
2021/04/09 05:00:42;;;;;;;34.03;19.40;;;;;;;;;;5136989;27;20023;-65
2021/04/09 05:03:08;;;;;;;51.92;29.02;;;;;;;;;;5137137;27;20023;-65
2021/04/09 05:05:33;;;;;;;52.35;26.60;;;;;;;;;;5137001;27;20019;-65
2021/04/09 05:07:58;;;;;;;52.00;28.10;;;;;;;;;;5136879;27;20016;-64
2021/04/09 05:10:24;;;;;;;47.97;24.52;;;;;;;;;;5136956;27;20039;-65
2021/04/09 05:12:51;;;;;;;41.13;21.23;;;;;;;;;;5136747;27;20023;-65
2021/04/09 05:15:16;;;;;;;30.73;15.02;;;;;;;;;;5136811;27;20031;-65
2021/04/09 05:17:42;;;;;;;29.63;17.60;;;;;;;;;;5118173;27;20022;-64
2021/04/09 05:20:08;;;;;;;25.70;14.43;;;;;;;;;;5136523;27;20456;-64
2021/04/09 05:22:33;;;;;;;32.60;16.70;;;;;;;;;;5136394;27;20023;-65
2021/04/09 05:24:59;;;;;;;26.40;14.68;;;;;;;;;;5135931;27;20079;-65
2021/04/09 05:27:25;;;;;;;26.27;15.05;;;;;;;;;;5136180;27;20385;-66
2021/04/09 05:29:51;;;;;;;26.33;14.52;;;;;;;;;;5136263;27;20052;-65
2021/04/09 05:32:17;;;;;;;27.05;14.85;;;;;;;;;;5136235;27;20019;-65
2021/04/09 05:34:42;;;;;;;27.20;14.13;;;;;;;;;;5136168;27;20019;-64
2021/04/09 05:37:08;;;;;;;26.27;14.88;;;;;;;;;;5117710;27;20030;-65
2021/04/09 05:39:34;;;;;;;24.00;14.45;;;;;;;;;;5136161;27;20019;-65
2021/04/09 05:41:59;;;;;;;49.70;26.52;;;;;;;;;;5136224;27;20666;-65
2021/04/09 05:44:25;;;;;;;55.63;31.25;;;;;;;;;;5135979;27;20035;-66
2021/04/09 05:46:52;;;;;;;68.53;29.75;;;;;;;;;;5135763;27;20019;-66
2021/04/09 05:49:17;;;;;;;36.45;19.45;;;;;;;;;;5135660;27;20579;-65
2021/04/09 05:51:43;;;;;;;47.85;23.40;;;;;;;;;;5135678;27;20106;-65
2021/04/09 05:54:09;;;;;;;39.17;20.30;;;;;;;;;;5134735;27;20434;-65
2021/04/09 05:56:34;;;;;;;27.08;15.18;;;;;;;;;;5135706;27;20087;-65
2021/04/09 05:59:00;;;;;;;29.60;14.82;;;;;;;;;;5117617;27;20011;-64
2021/04/09 06:01:27;;;;;;;26.08;13.63;;;;;;;;;;5135483;27;20035;-65
2021/04/09 06:03:52;;;;;;;25.58;13.80;;;;;;;;;;5134245;27;20018;-64
2021/04/09 06:06:18;;;;;;;24.75;12.27;;;;;;;;;;5135917;27;20399;-65
2021/04/09 06:08:44;;;;;;;22.00;13.02;;;;;;;;;;5135496;27;20015;-65
2021/04/09 06:11:10;;;;;;;23.30;12.65;;;;;;;;;;5135676;27;20020;-65
2021/04/09 06:13:36;;;;;;;21.63;11.77;;;;;;;;;;5135459;27;20114;-65
2021/04/09 06:16:03;;;;;;;24.33;11.90;;;;;;;;;;5135564;27;20027;-66
2021/04/09 06:18:28;;;;;;;17.05;9.73;;;;;;;;;;5135514;27;20104;-64
2021/04/09 06:20:55;;;;;;;15.63;9.05;;;;;;;;;;5135194;27;20473;-64
2021/04/09 06:23:20;;;;;;;16.40;8.68;;;;;;;;;;5135475;27;20023;-64
2021/04/09 06:25:46;;;;;;;12.15;7.72;;;;;;;;;;5135386;27;20031;-64
2021/04/09 06:28:11;;;;;;;11.77;7.65;;;;;;;;;;5135069;27;20027;-64
2021/04/09 06:30:37;;;;;;;17.25;8.63;;;;;;;;;;5134860;27;20031;-64
2021/04/09 06:33:04;;;;;;;14.60;7.63;;;;;;;;;;5135090;27;20512;-69
2021/04/09 06:35:30;;;;;;;8.18;5.18;;;;;;;;;;5135244;27;20027;-69
2021/04/09 06:37:55;;;;;;;8.95;5.57;;;;;;;;;;5134984;27;20019;-69
2021/04/09 06:40:21;;;;;;;7.75;5.30;;;;;;;;;;5135026;27;20546;-69
2021/04/09 06:42:57;;;;;;;8.07;4.72;;;;;;;;;;5134957;27;20015;-69
2021/04/09 06:45:23;;;;;;;6.63;5.05;;;;;;;;;;5129777;27;20023;-69
2021/04/09 06:47:48;;;;;;;7.60;4.25;;;;;;;;;;5134727;27;20084;-69
2021/04/09 06:50:14;;;;;;;7.65;4.75;;;;;;;;;;5134793;27;20027;-69
2021/04/09 06:52:41;;;;;;;6.75;4.05;;;;;;;;;;5134829;27;20110;-69
2021/04/09 06:55:08;;;;;;;4.82;2.28;;;;;;;;;;5134649;27;20374;-64
2021/04/09 06:57:33;;;;;;;4.47;2.97;;;;;;;;;;5134301;27;20495;-65
2021/04/09 07:00:10;;;;;;;5.88;3.95;;;;;;;;;;5134286;27;20031;-65
2021/04/09 07:02:36;;;;;;;5.05;3.13;;;;;;;;;;5134573;27;20118;-65
2021/04/09 07:05:01;;;;;;;8.98;5.03;;;;;;;;;;5134548;27;20055;-65
2021/04/09 07:07:27;;;;;;;6.70;4.40;;;;;;;;;;5133450;27;20383;-65
2021/04/09 07:09:53;;;;;;;5.68;4.07;;;;;;;;;;5134472;27;20020;-65
2021/04/09 07:12:23;;;;;;;4.43;2.38;;;;;;;;;;5132993;27;20066;-65
2021/04/09 07:14:50;;;;;;;6.88;4.32;;;;;;;;;;5134676;27;20054;-65
2021/04/09 07:17:25;;;;;;;5.75;4.38;;;;;;;;;;5134427;27;20016;-64
2021/04/09 07:19:51;;;;;;;3.88;2.90;;;;;;;;;;5116346;27;20028;-64
2021/04/09 07:22:27;;;;;;;6.60;3.90;;;;;;;;;;5133811;27;20076;-64
2021/04/09 07:25:01;;;;;;;6.97;4.55;;;;;;;;;;5114031;28;20027;-64
2021/04/09 07:27:26;;;;;;;3.25;2.28;;;;;;;;;;5113739;28;20031;-64
2021/04/09 07:29:52;;;;;;;4.68;3.55;;;;;;;;;;5113789;28;20442;-65
2021/04/09 07:32:17;;;;;;;2.60;2.10;;;;;;;;;;5113596;28;20032;-65
2021/04/09 07:34:55;;;;;;;3.42;1.77;;;;;;;;;;5113604;28;20367;-64
2021/04/09 07:37:22;;;;;;;6.50;3.35;;;;;;;;;;5113535;28;20035;-64
2021/04/09 07:39:53;;;;;;;4.32;2.78;;;;;;;;;;5132826;28;20034;-64
2021/04/09 07:42:19;;;;;;;7.90;3.53;;;;;;;;;;5134493;28;20031;-64
2021/04/09 07:44:55;;;;;;;3.25;2.58;;;;;;;;;;5134474;28;20353;-64
2021/04/09 07:47:25;;;;;;;4.15;2.75;;;;;;;;;;5134195;28;20048;-64
2021/04/09 07:49:57;;;;;;;2.47;2.27;;;;;;;;;;5133033;28;20027;-64
2021/04/09 07:52:23;;;;;;;4.38;2.97;;;;;;;;;;5134125;28;20035;-64
2021/04/09 07:54:48;;;;;;;2.50;2.30;;;;;;;;;;5133572;28;20047;-64
2021/04/09 07:57:26;;;;;;;2.90;2.45;;;;;;;;;;5134148;28;20110;-64
2021/04/09 07:59:52;;;;;;;4.40;3.33;;;;;;;;;;5134485;28;20026;-64
2021/04/09 08:02:36;;;;;;;4.75;3.38;;;;;;;;;;5133918;28;20102;-64
2021/04/09 08:05:02;;;;;;;3.72;2.88;;;;;;;;;;5134148;28;20047;-64
2021/04/09 08:07:31;;;;;;;4.20;2.80;;;;;;;;;;5132646;28;20023;-64
2021/04/09 08:10:00;;;;;;;3.10;2.80;;;;;;;;;;5126462;28;20027;-64
2021/04/09 08:12:26;;;;;;;2.80;2.58;;;;;;;;;;5133332;28;20098;-64
2021/04/09 08:14:53;;;;;;;3.17;2.00;;;;;;;;;;5142660;27;20477;-64
2021/04/09 08:17:19;;;;;;;2.33;1.70;;;;;;;;;;5127167;28;20069;-64
2021/04/09 08:19:51;;;;;;;4.22;2.75;;;;;;;;;;5128730;27;20102;-64
2021/04/09 08:22:17;;;;;;;3.67;2.83;;;;;;;;;;5134021;27;20046;-64
2021/04/09 08:24:43;;;;;;;2.38;2.10;;;;;;;;;;5136613;27;20345;-64
2021/04/09 08:27:11;;;;;;;3.03;2.72;;;;;;;;;;5136141;27;20374;-64
2021/04/09 08:29:36;;;;;;;3.70;2.90;;;;;;;;;;5136233;27;20366;-64
2021/04/09 08:32:03;;;;;;;2.42;2.22;;;;;;;;;;5118762;27;20499;-65
2021/04/09 08:34:29;;;;;;;2.42;2.05;;;;;;;;;;5137218;27;20019;-64
2021/04/09 08:36:54;;;;;;;3.65;2.38;;;;;;;;;;5118753;27;20027;-64
2021/04/09 08:39:20;;;;;;;2.33;2.10;;;;;;;;;;5135921;27;20019;-64
2021/04/09 08:41:48;;;;;;;5.05;2.60;;;;;;;;;;5134436;27;20057;-64
2021/04/09 08:44:14;;;;;;;2.35;2.03;;;;;;;;;;5135980;27;20019;-65
2021/04/09 08:46:41;;;;;;;1.92;1.00;;;;;;;;;;5135448;27;20399;-64
2021/04/09 08:49:07;;;;;;;2.60;1.73;;;;;;;;;;5136717;27;20353;-64
2021/04/09 08:51:35;;;;;;;1.55;1.45;;;;;;;;;;5136572;27;20052;-64
2021/04/09 08:54:19;;;;;;;2.05;1.55;;;;;;;;;;5117741;27;20031;-64
2021/04/09 08:56:44;;;;;;;2.30;1.65;;;;;;;;;;5135613;27;20053;-64
2021/04/09 08:59:10;;;;;;;1.40;1.30;;;;;;;;;;5136717;27;20468;-64
2021/04/09 09:01:35;;;;;;;1.90;1.65;;;;;;;;;;5136720;27;20440;-64
2021/04/09 09:04:19;;;;;;;2.53;2.33;;;;;;;;;;5136578;27;20031;-64
2021/04/09 09:06:44;;;;;;;2.30;2.10;;;;;;;;;;5136519;27;20027;-64
2021/04/09 09:09:10;;;;;;;2.50;1.73;;;;;;;;;;5135416;27;20429;-64
2021/04/09 09:11:55;;;;;;;1.95;1.20;;;;;;;;;;5136372;27;20019;-64
2021/04/09 09:14:33;;;;;;;1.88;1.60;;;;;;;;;;5136425;27;20115;-64
2021/04/09 09:17:16;;;;;;;3.10;1.20;;;;;;;;;;5126512;27;20030;-64
2021/04/09 09:19:42;;;;;;;1.33;1.23;;;;;;;;;;5131867;27;20054;-64
2021/04/09 09:22:14;;;;;;;1.50;1.35;;;;;;;;;;5135726;27;20059;-64
2021/04/09 09:24:58;;;;;;;1.30;1.00;;;;;;;;;;5123281;27;20024;-64
2021/04/09 09:27:43;;;;;;;2.83;1.95;;;;;;;;;;5098021;28;20036;-63
2021/04/09 09:30:28;;;;;;;2.33;1.80;;;;;;;;;;5115207;28;20032;-64
2021/04/09 09:33:12;;;;;;;2.05;1.88;;;;;;;;;;5116140;28;20038;-64
2021/04/09 09:35:58;;;;;;;2.13;1.48;;;;;;;;;;5117320;27;20080;-64
2021/04/09 09:38:42;;;;;;;2.60;1.67;;;;;;;;;;5136455;27;20468;-64
2021/04/09 09:41:07;;;;;;;3.55;2.35;;;;;;;;;;5118172;27;20380;-64
2021/04/09 09:43:33;;;;;;;1.40;1.30;;;;;;;;;;5134734;27;20019;-64
2021/04/09 09:45:59;;;;;;;1.02;0.80;;;;;;;;;;5102203;28;20031;-64
2021/04/09 09:48:24;;;;;;;0.70;0.70;;;;;;;;;;5123351;27;20417;-64
2021/04/09 09:50:50;;;;;;;2.40;2.20;;;;;;;;;;5135986;27;20027;-64
2021/04/09 09:53:15;;;;;;;1.42;1.33;;;;;;;;;;5134666;27;20057;-64
2021/04/09 09:55:43;;;;;;;2.13;1.90;;;;;;;;;;5135769;27;20072;-64
2021/04/09 09:58:10;;;;;;;2.17;1.77;;;;;;;;;;5135518;27;20114;-64
2021/04/09 10:00:37;;;;;;;2.83;2.10;;;;;;;;;;5135889;27;20031;-64
2021/04/09 10:03:09;;;;;;;2.17;1.55;;;;;;;;;;5135835;27;20357;-64
2021/04/09 10:05:35;;;;;;;1.13;1.10;;;;;;;;;;5135590;27;20019;-64
2021/04/09 10:08:04;;;;;;;1.73;1.50;;;;;;;;;;5135734;27;20058;-64
2021/04/09 10:10:39;;;;;;;0.60;0.60;;;;;;;;;;5135881;27;20027;-64
2021/04/09 10:13:23;;;;;;;1.17;1.05;;;;;;;;;;5134743;27;20159;-65
2021/04/09 10:15:50;;;;;;;2.28;2.15;;;;;;;;;;5134586;27;20448;-65
2021/04/09 10:18:16;;;;;;;1.63;0.85;;;;;;;;;;5134279;27;20063;-64
2021/04/09 10:20:43;;;;;;;1.98;1.88;;;;;;;;;;5135421;27;20118;-64
2021/04/09 10:23:09;;;;;;;1.83;1.73;;;;;;;;;;5135238;27;20107;-64
2021/04/09 10:25:35;;;;;;;1.38;0.85;;;;;;;;;;5134004;27;20027;-64
2021/04/09 10:28:19;;;;;;;1.00;1.00;;;;;;;;;;5135186;27;20030;-64
2021/04/09 10:30:44;;;;;;;2.55;2.08;;;;;;;;;;5116957;27;20027;-64
2021/04/09 10:33:11;;;;;;;1.00;0.95;;;;;;;;;;5135219;27;20698;-64
2021/04/09 10:35:36;;;;;;;1.27;1.17;;;;;;;;;;5135103;27;20465;-64
2021/04/09 10:38:09;;;;;;;2.25;1.88;;;;;;;;;;5135052;27;20019;-64
2021/04/09 10:40:49;;;;;;;2.28;2.08;;;;;;;;;;5134875;27;20035;-64
2021/04/09 10:43:25;;;;;;;2.65;1.70;;;;;;;;;;5135072;27;20031;-64
2021/04/09 10:46:04;;;;;;;1.30;0.90;;;;;;;;;;5135167;27;20038;-64
2021/04/09 10:48:29;;;;;;;2.17;2.00;;;;;;;;;;5134914;27;20034;-65
2021/04/09 10:50:55;;;;;;;2.42;2.22;;;;;;;;;;5134992;27;20047;-64
2021/04/09 10:53:21;;;;;;;3.20;1.98;;;;;;;;;;5134142;27;20114;-65
2021/04/09 10:55:46;;;;;;;3.90;1.85;;;;;;;;;;5135006;27;20028;-64
2021/04/09 10:58:16;;;;;;;3.00;1.73;;;;;;;;;;5134840;27;20035;-64
2021/04/09 11:00:41;;;;;;;5.57;3.58;;;;;;;;;;5134623;27;20470;-64
2021/04/09 11:03:07;;;;;;;1.63;1.52;;;;;;;;;;5134810;27;20114;-64
2021/04/09 11:05:32;;;;;;;2.17;1.98;;;;;;;;;;5134823;27;20022;-64
2021/04/09 11:07:58;;;;;;;1.65;1.55;;;;;;;;;;5134923;27;20062;-64
2021/04/09 11:10:34;;;;;;;0.85;0.85;;;;;;;;;;5134714;27;20102;-64
2021/04/09 11:13:00;;;;;;;1.42;0.65;;;;;;;;;;5134604;27;20122;-64
2021/04/09 11:15:37;;;;;;;3.08;2.78;;;;;;;;;;5134335;27;20046;-63
2021/04/09 11:18:05;;;;;;;0.70;0.70;;;;;;;;;;5134047;27;20023;-63
2021/04/09 11:20:34;;;;;;;2.15;1.95;;;;;;;;;;5133842;27;20520;-64
2021/04/09 11:23:12;;;;;;;3.00;1.98;;;;;;;;;;5133810;27;20163;-63
2021/04/09 11:25:38;;;;;;;5.25;2.80;;;;;;;;;;5133996;27;20035;-63
2021/04/09 11:28:04;;;;;;;5.25;2.75;;;;;;;;;;5134208;27;20348;-63
2021/04/09 11:30:31;;;;;;;2.60;0.95;;;;;;;;;;5134159;28;20372;-63
2021/04/09 11:32:57;;;;;;;0.50;0.50;;;;;;;;;;5149812;27;20049;-63
2021/04/09 11:35:24;;;;;;;2.92;1.85;;;;;;;;;;5133671;28;20477;-63
2021/04/09 11:37:52;;;;;;;2.38;1.60;;;;;;;;;;5132543;28;20015;-63
2021/04/09 11:40:33;;;;;;;0.85;0.73;;;;;;;;;;5133742;27;20109;-63
2021/04/09 11:42:59;;;;;;;2.75;2.38;;;;;;;;;;5133774;28;20425;-63
2021/04/09 11:45:35;;;;;;;3.03;1.52;;;;;;;;;;5133774;27;20026;-63
2021/04/09 11:48:01;;;;;;;1.30;1.20;;;;;;;;;;5134268;28;20031;-63
2021/04/09 11:50:26;;;;;;;2.10;0.93;;;;;;;;;;5133587;27;20384;-63
2021/04/09 11:53:03;;;;;;;1.58;1.48;;;;;;;;;;5135053;27;20024;-64
2021/04/09 11:55:30;;;;;;;2.38;2.17;;;;;;;;;;5137063;27;20042;-63
2021/04/09 11:57:56;;;;;;;2.30;1.30;;;;;;;;;;5137745;27;20106;-63
2021/04/09 12:00:22;;;;;;;3.13;2.22;;;;;;;;;;5153697;27;20106;-63
2021/04/09 12:02:58;;;;;;;3.10;2.00;;;;;;;;;;5137495;27;20023;-63
2021/04/09 12:05:25;;;;;;;2.33;2.13;;;;;;;;;;5136414;27;20063;-63
2021/04/09 12:07:50;;;;;;;0.90;0.90;;;;;;;;;;5137413;27;20047;-63
2021/04/09 12:10:16;;;;;;;3.00;2.28;;;;;;;;;;5137551;27;20081;-63
2021/04/09 12:12:42;;;;;;;3.95;0.88;;;;;;;;;;5137389;27;20027;-63
2021/04/09 12:15:08;;;;;;;1.98;1.75;;;;;;;;;;5137283;27;20050;-63
2021/04/09 12:17:34;;;;;;;2.33;0.77;;;;;;;;;;5137370;27;20011;-63
2021/04/09 12:20:01;;;;;;;1.70;0.88;;;;;;;;;;5137213;27;20106;-63
2021/04/09 12:22:27;;;;;;;2.63;2.38;;;;;;;;;;5119029;27;20023;-63
2021/04/09 12:24:54;;;;;;;1.45;1.00;;;;;;;;;;5137053;27;20061;-63
2021/04/09 12:27:19;;;;;;;2.53;2.20;;;;;;;;;;5137202;27;20072;-63
2021/04/09 12:29:51;;;;;;;5.15;2.80;;;;;;;;;;5137067;27;20027;-63
2021/04/09 12:32:23;;;;;;;3.63;2.25;;;;;;;;;;5137031;27;20034;-63
2021/04/09 12:34:48;;;;;;;3.17;2.75;;;;;;;;;;5136963;27;20055;-63
2021/04/09 12:37:14;;;;;;;1.00;0.90;;;;;;;;;;5137053;27;20052;-63
2021/04/09 12:39:39;;;;;;;1.52;0.95;;;;;;;;;;5136860;27;20506;-63
2021/04/09 12:42:05;;;;;;;0.50;0.50;;;;;;;;;;5136659;27;20015;-63
2021/04/09 12:44:31;;;;;;;3.58;3.00;;;;;;;;;;5136716;27;20035;-63
2021/04/09 12:46:56;;;;;;;3.08;1.77;;;;;;;;;;5136714;27;20019;-63
2021/04/09 12:49:22;;;;;;;0.80;0.80;;;;;;;;;;5135585;27;20024;-63
2021/04/09 12:51:48;;;;;;;1.38;1.27;;;;;;;;;;5136643;27;20023;-63
2021/04/09 12:54:14;;;;;;;1.63;1.08;;;;;;;;;;5136241;27;20039;-64
2021/04/09 12:56:40;;;;;;;1.02;0.93;;;;;;;;;;5135529;27;20030;-64
2021/04/09 12:59:05;;;;;;;1.48;0.77;;;;;;;;;;5136417;27;20098;-64
2021/04/09 13:01:31;;;;;;;1.95;1.50;;;;;;;;;;5136638;27;20033;-64
2021/04/09 13:03:57;;;;;;;1.15;1.05;;;;;;;;;;5135198;27;20464;-64
2021/04/09 13:06:22;;;;;;;4.20;1.45;;;;;;;;;;5136435;27;20109;-64
2021/04/09 13:08:48;;;;;;;0.98;0.98;;;;;;;;;;5136297;27;20029;-64
2021/04/09 13:11:19;;;;;;;4.85;2.35;;;;;;;;;;5136317;27;20072;-64
2021/04/09 13:13:48;;;;;;;4.18;2.80;;;;;;;;;;5152131;27;20031;-64
2021/04/09 13:16:14;;;;;;;2.30;1.52;;;;;;;;;;5136303;27;20046;-64
2021/04/09 13:18:40;;;;;;;1.42;1.33;;;;;;;;;;5136143;27;20027;-64
2021/04/09 13:21:06;;;;;;;2.50;1.50;;;;;;;;;;5152107;27;20030;-64
2021/04/09 13:23:34;;;;;;;3.65;2.33;;;;;;;;;;5136006;27;20038;-64
2021/04/09 13:26:00;;;;;;;3.95;1.73;;;;;;;;;;5136067;27;20561;-64
2021/04/09 13:28:27;;;;;;;4.68;1.17;;;;;;;;;;5135992;27;20113;-64
2021/04/09 13:30:56;;;;;;;1.73;1.17;;;;;;;;;;5135970;27;20057;-64
2021/04/09 13:33:29;;;;;;;1.90;1.63;;;;;;;;;;5135856;27;20035;-64
2021/04/09 13:35:56;;;;;;;1.65;1.02;;;;;;;;;;5135727;27;20019;-64
2021/04/09 13:38:22;;;;;;;2.53;1.52;;;;;;;;;;5135772;27;20031;-64
2021/04/09 13:40:51;;;;;;;1.20;0.95;;;;;;;;;;5135694;27;20023;-64
2021/04/09 13:43:17;;;;;;;3.38;1.80;;;;;;;;;;5135667;27;20387;-64
2021/04/09 13:45:43;;;;;;;1.92;1.38;;;;;;;;;;5135786;27;20019;-64
2021/04/09 13:48:08;;;;;;;1.85;0.98;;;;;;;;;;5135658;27;20023;-64
2021/04/09 13:50:34;;;;;;;0.57;0.55;;;;;;;;;;5135520;27;20033;-64
2021/04/09 13:53:00;;;;;;;2.28;2.08;;;;;;;;;;5135488;27;20092;-64
2021/04/09 13:55:26;;;;;;;3.30;1.77;;;;;;;;;;5134965;27;20074;-64
2021/04/09 13:57:51;;;;;;;2.05;1.05;;;;;;;;;;5135478;27;20027;-64
2021/04/09 14:00:17;;;;;;;7.07;2.10;;;;;;;;;;5136011;27;20032;-64
2021/04/09 14:02:43;;;;;;;1.90;1.20;;;;;;;;;;5135602;27;20456;-64
2021/04/09 14:05:09;;;;;;;2.05;1.85;;;;;;;;;;5151683;27;20031;-64
2021/04/09 14:07:34;;;;;;;4.20;1.92;;;;;;;;;;5135396;27;20023;-64
2021/04/09 14:10:00;;;;;;;1.98;1.55;;;;;;;;;;5151677;27;20035;-64
2021/04/09 14:12:25;;;;;;;2.38;2.17;;;;;;;;;;5135482;27;20110;-64
2021/04/09 14:14:51;;;;;;;2.17;1.25;;;;;;;;;;5134827;27;20027;-64
2021/04/09 14:17:17;;;;;;;1.70;0.95;;;;;;;;;;5135295;27;20445;-64
2021/04/09 14:19:43;;;;;;;3.50;2.17;;;;;;;;;;5135559;27;20096;-65
2021/04/09 14:22:10;;;;;;;2.50;2.08;;;;;;;;;;5135754;27;20406;-64
2021/04/09 14:24:35;;;;;;;1.50;1.08;;;;;;;;;;5151547;27;20388;-64
2021/04/09 14:27:01;;;;;;;3.97;2.20;;;;;;;;;;5134977;27;20019;-64
2021/04/09 14:29:26;;;;;;;3.58;1.63;;;;;;;;;;5134891;27;20133;-64
2021/04/09 14:31:52;;;;;;;3.25;1.60;;;;;;;;;;5134769;27;20027;-64
2021/04/09 14:34:17;;;;;;;1.02;0.88;;;;;;;;;;5151149;27;20031;-64